Time;durP1;ratioP1;P1;durP2;ratioP2;P2;SDS_P1;SDS_P2;PMS_P1;PMS_P2;Temp;Humidity;BMP_temperature;BMP_pressure;BME280_temperature;BME280_humidity;BME280_pressure;Samples;Min_cycle;Max_cycle;Signal;HPM_P1;HPM_P2
2023/12/31 00:01:04;;;;;;;4.18;1.10;;;;;;;10.34;100.00;100337.81;5275414;28;20027;-75
2023/12/31 00:03:35;;;;;;;7.80;1.60;;;;;;;10.28;100.00;100330.44;5277060;28;20023;-75
2023/12/31 00:06:05;;;;;;;2.75;1.27;;;;;;;10.27;100.00;100311.88;5279150;28;20115;-75
2023/12/31 00:08:36;;;;;;;3.95;1.30;;;;;;;10.16;100.00;100298.84;5276557;27;20028;-75
2023/12/31 00:11:06;;;;;;;3.33;1.10;;;;;;;10.32;100.00;100304.97;5275656;28;20032;-75
2023/12/31 00:13:37;;;;;;;3.58;1.17;;;;;;;10.35;100.00;100309.16;5275642;28;20024;-75
2023/12/31 00:16:12;;;;;;;3.03;1.15;;;;;;;10.32;100.00;100310.31;5280568;28;20766;-75
2023/12/31 00:18:42;;;;;;;1.70;0.90;;;;;;;10.33;100.00;100311.97;5273478;28;20042;-75
2023/12/31 00:21:13;;;;;;;4.63;1.13;;;;;;;10.36;100.00;100297.41;5279827;28;20024;-75
2023/12/31 00:23:44;;;;;;;2.65;0.90;;;;;;;10.28;100.00;100286.72;5270605;28;20094;-75
2023/12/31 00:26:15;;;;;;;4.70;1.10;;;;;;;10.27;100.00;100280.53;5271978;28;20430;-75
2023/12/31 00:28:45;;;;;;;3.45;1.08;;;;;;;10.25;100.00;100274.53;5274415;28;20027;-75
2023/12/31 00:31:16;;;;;;;4.68;1.10;;;;;;;10.26;100.00;100256.59;5278113;28;20493;-75
2023/12/31 00:33:46;;;;;;;3.97;1.00;;;;;;;10.29;100.00;100256.22;5277535;28;20020;-75
2023/12/31 00:36:17;;;;;;;4.70;1.05;;;;;;;10.11;100.00;100243.91;5272662;28;20016;-75
2023/12/31 00:38:48;;;;;;;3.35;1.25;;;;;;;10.23;100.00;100241.66;5278181;28;20034;-75
2023/12/31 00:41:19;;;;;;;3.28;0.90;;;;;;;10.19;100.00;100248.41;5272402;28;20028;-75
2023/12/31 00:43:49;;;;;;;7.95;1.40;;;;;;;10.15;100.00;100243.56;5268058;28;20503;-75
2023/12/31 00:46:20;;;;;;;1.92;0.88;;;;;;;10.17;100.00;100225.44;5274629;27;20076;-75
2023/12/31 00:48:50;;;;;;;2.75;1.30;;;;;;;10.18;100.00;100219.91;5270604;28;20161;-75
2023/12/31 00:51:21;;;;;;;3.90;1.55;;;;;;;10.25;100.00;100212.03;5278862;28;20028;-75
2023/12/31 00:53:51;;;;;;;7.00;1.70;;;;;;;10.17;100.00;100204.00;5276607;28;20158;-75
2023/12/31 00:56:22;;;;;;;3.80;1.30;;;;;;;10.19;100.00;100204.66;5273761;28;20031;-75
2023/12/31 00:58:52;;;;;;;2.88;1.55;;;;;;;10.06;100.00;100199.91;5277313;28;20377;-75
2023/12/31 01:01:23;;;;;;;5.57;1.15;;;;;;;10.22;100.00;100194.41;5270628;28;20068;-75
2023/12/31 01:03:53;;;;;;;2.47;1.10;;;;;;;10.30;100.00;100186.34;5276141;28;20027;-75
2023/12/31 01:06:24;;;;;;;3.25;1.65;;;;;;;10.22;100.00;100183.69;5278645;28;20030;-75
2023/12/31 01:08:56;;;;;;;8.00;2.50;;;;;;;10.20;100.00;100166.13;5267771;28;20070;-75
2023/12/31 01:11:27;;;;;;;6.15;1.60;;;;;;;10.09;100.00;100172.72;5272379;28;20097;-75
2023/12/31 01:13:57;;;;;;;2.35;1.33;;;;;;;10.09;100.00;100162.88;5272820;28;20476;-75
2023/12/31 01:16:28;;;;;;;4.15;1.40;;;;;;;10.12;100.00;100157.13;5271242;28;20031;-75
2023/12/31 01:18:58;;;;;;;3.33;1.35;;;;;;;10.14;100.00;100154.28;5282647;28;20020;-75
2023/12/31 01:21:29;;;;;;;4.32;1.40;;;;;;;10.15;100.00;100149.75;5274985;28;20035;-75
2023/12/31 01:23:59;;;;;;;3.75;1.65;;;;;;;10.14;100.00;100146.25;5273702;28;20077;-75
2023/12/31 01:26:30;;;;;;;4.22;1.30;;;;;;;10.21;100.00;100136.47;5271296;28;20028;-75
2023/12/31 01:29:00;;;;;;;6.90;1.27;;;;;;;10.19;100.00;100132.28;5274020;28;20501;-75
2023/12/31 01:31:31;;;;;;;3.58;1.30;;;;;;;10.22;100.00;100130.06;5275999;28;20031;-75
2023/12/31 01:34:01;;;;;;;3.17;1.20;;;;;;;10.16;100.00;100128.13;5273640;28;20034;-75
2023/12/31 01:36:32;;;;;;;3.63;1.48;;;;;;;10.13;100.00;100131.16;5274776;27;20023;-75
2023/12/31 01:39:02;;;;;;;5.95;1.58;;;;;;;10.30;100.00;100116.63;5269466;28;20035;-75
2023/12/31 01:41:33;;;;;;;2.63;1.35;;;;;;;10.18;100.00;100115.38;5274132;28;20038;-75
2023/12/31 01:44:06;;;;;;;2.33;1.30;;;;;;;10.17;100.00;100105.66;5276791;28;20039;-75
2023/12/31 01:46:38;;;;;;;2.13;1.10;;;;;;;10.20;100.00;100101.81;5271950;28;20054;-75
2023/12/31 01:49:09;;;;;;;4.68;1.35;;;;;;;10.15;100.00;100102.34;5277851;27;20063;-75
2023/12/31 01:51:40;;;;;;;2.53;1.58;;;;;;;10.12;100.00;100094.66;5274525;28;20055;-75
2023/12/31 01:54:11;;;;;;;3.35;1.33;;;;;;;10.18;100.00;100079.69;5276016;28;20024;-75
2023/12/31 01:56:43;;;;;;;2.33;1.40;;;;;;;10.26;100.00;100085.00;5272127;28;20529;-75
2023/12/31 01:59:14;;;;;;;3.00;1.38;;;;;;;10.15;100.00;100072.88;5270502;28;20024;-75
2023/12/31 02:01:45;;;;;;;4.13;1.15;;;;;;;10.21;100.00;100063.25;5277723;28;20073;-75
2023/12/31 02:04:19;;;;;;;2.80;0.98;;;;;;;10.07;100.00;100060.34;5271410;28;20102;-75
2023/12/31 02:07:02;;;;;;;1.80;1.27;;;;;;;10.09;100.00;100050.31;5263412;28;20049;-75
2023/12/31 02:09:33;;;;;;;2.15;1.27;;;;;;;10.31;100.00;100053.97;5270077;28;20031;-75
2023/12/31 02:12:04;;;;;;;3.20;1.20;;;;;;;10.23;100.00;100054.00;5270449;28;20545;-75
2023/12/31 02:14:35;;;;;;;2.67;1.48;;;;;;;10.23;100.00;100053.16;5273798;27;20110;-75
2023/12/31 02:17:06;;;;;;;2.72;1.35;;;;;;;10.38;100.00;100046.81;5275412;28;20046;-75
2023/12/31 02:19:36;;;;;;;5.53;1.20;;;;;;;10.25;100.00;100037.78;5269658;28;20020;-75
2023/12/31 02:22:08;;;;;;;4.07;1.20;;;;;;;10.29;100.00;100031.00;5274289;28;20027;-75
2023/12/31 02:24:47;;;;;;;2.33;1.27;;;;;;;10.26;100.00;100034.09;5278052;28;20384;-75
2023/12/31 02:27:18;;;;;;;2.20;1.10;;;;;;;10.39;100.00;100023.53;5272000;28;20040;-75
2023/12/31 02:29:49;;;;;;;6.72;1.30;;;;;;;10.32;100.00;100014.56;5272667;28;20149;-75
2023/12/31 02:32:19;;;;;;;5.40;1.40;;;;;;;10.20;100.00;100011.50;5278528;28;20077;-75
2023/12/31 02:34:49;;;;;;;4.93;1.70;;;;;;;10.26;100.00;100004.59;5268529;28;20474;-75
2023/12/31 02:37:20;;;;;;;3.42;1.23;;;;;;;10.29;100.00;99999.72;5276607;28;20415;-75
2023/12/31 02:39:50;;;;;;;2.83;1.25;;;;;;;10.30;100.00;99993.31;5268927;28;20407;-75
2023/12/31 02:42:21;;;;;;;4.95;1.45;;;;;;;10.16;100.00;99980.72;5278000;28;20110;-75
2023/12/31 02:44:51;;;;;;;3.92;1.00;;;;;;;10.24;100.00;99971.75;5275912;28;20015;-75
2023/12/31 02:47:22;;;;;;;2.75;1.48;;;;;;;10.30;100.00;99961.16;5272051;28;20027;-75
2023/12/31 02:49:53;;;;;;;2.35;1.20;;;;;;;10.34;100.00;99957.09;5265142;28;20020;-75
2023/12/31 02:52:24;;;;;;;3.90;1.30;;;;;;;10.28;100.00;99949.75;5269867;28;20507;-75
2023/12/31 02:54:55;;;;;;;3.85;1.00;;;;;;;10.35;100.00;99950.69;5269159;28;20036;-75
2023/12/31 02:57:27;;;;;;;3.63;1.13;;;;;;;10.27;100.00;99940.06;5272270;28;20018;-75
2023/12/31 02:59:57;;;;;;;2.80;1.40;;;;;;;10.26;100.00;99930.38;5265467;28;20081;-75
2023/12/31 03:02:28;;;;;;;2.60;1.50;;;;;;;10.34;100.00;99921.38;5270980;28;20480;-75
2023/12/31 03:04:59;;;;;;;2.78;1.20;;;;;;;10.39;100.00;99910.91;5269423;28;20622;-75
2023/12/31 03:07:41;;;;;;;3.47;1.50;;;;;;;10.37;100.00;99905.75;5271554;28;20106;-75
2023/12/31 03:10:12;;;;;;;4.25;1.20;;;;;;;10.28;100.00;99895.31;5273402;28;20036;-75
2023/12/31 03:12:43;;;;;;;4.18;1.30;;;;;;;10.31;100.00;99889.59;5273529;28;20036;-75
2023/12/31 03:15:13;;;;;;;5.85;1.73;;;;;;;10.30;100.00;99891.44;5269655;28;20036;-75
2023/12/31 03:17:44;;;;;;;3.38;1.40;;;;;;;10.28;100.00;99880.06;5269843;28;20027;-75
2023/12/31 03:20:14;;;;;;;5.25;1.45;;;;;;;10.27;100.00;99869.53;5265787;28;20800;-75
2023/12/31 03:22:47;;;;;;;4.72;1.55;;;;;;;10.28;100.00;99861.28;5271963;28;20489;-75
2023/12/31 03:25:32;;;;;;;4.40;1.65;;;;;;;10.26;100.00;99859.84;5270443;28;20035;-75
2023/12/31 03:28:04;;;;;;;7.15;1.35;;;;;;;10.16;100.00;99852.06;5271420;28;20105;-75
2023/12/31 03:30:35;;;;;;;2.30;1.20;;;;;;;10.13;100.00;99845.22;5277701;28;20279;-75
2023/12/31 03:33:07;;;;;;;2.70;1.13;;;;;;;10.16;100.00;99849.38;5274614;28;20031;-75
2023/12/31 03:35:37;;;;;;;1.98;1.33;;;;;;;10.06;100.00;99843.47;5280640;28;20034;-75
2023/12/31 03:38:08;;;;;;;1.80;1.38;;;;;;;10.17;100.00;99834.97;5277050;28;20023;-75
2023/12/31 03:40:40;;;;;;;3.53;1.58;;;;;;;10.11;100.00;99830.34;5273079;28;20049;-75
2023/12/31 03:43:11;;;;;;;3.22;1.40;;;;;;;9.99;100.00;99816.63;5274881;28;20039;-75
2023/12/31 03:45:41;;;;;;;3.05;1.38;;;;;;;10.03;100.00;99807.16;5274680;28;20091;-75
2023/12/31 03:48:12;;;;;;;1.88;1.42;;;;;;;10.01;100.00;99808.38;5277353;28;20034;-75
2023/12/31 03:50:43;;;;;;;2.20;1.48;;;;;;;10.06;100.00;99805.97;5273709;28;20032;-75
2023/12/31 03:53:13;;;;;;;3.65;1.27;;;;;;;10.04;100.00;99803.47;5275521;28;20119;-75
2023/12/31 03:55:44;;;;;;;3.75;1.35;;;;;;;9.91;100.00;99791.78;5273530;28;20702;-75
2023/12/31 03:58:15;;;;;;;7.38;1.55;;;;;;;10.02;100.00;99789.44;5273109;28;20038;-75
2023/12/31 04:00:45;;;;;;;3.90;1.27;;;;;;;10.00;100.00;99779.94;5269768;28;20028;-75
2023/12/31 04:03:16;;;;;;;1.25;1.08;;;;;;;10.06;100.00;99769.28;5276499;28;20023;-75
2023/12/31 04:05:46;;;;;;;3.63;1.50;;;;;;;10.05;100.00;99775.66;5271872;28;20101;-75
2023/12/31 04:08:17;;;;;;;2.15;1.63;;;;;;;10.03;100.00;99760.78;5273233;28;20031;-75
2023/12/31 04:10:48;;;;;;;1.58;1.23;;;;;;;10.07;100.00;99762.91;5266403;28;20397;-75
2023/12/31 04:13:18;;;;;;;2.63;1.48;;;;;;;10.13;100.00;99742.53;5272885;28;20031;-75
2023/12/31 04:15:49;;;;;;;2.28;1.30;;;;;;;10.17;100.00;99743.81;5271690;28;20028;-75
2023/12/31 04:18:20;;;;;;;2.60;1.58;;;;;;;10.13;100.00;99735.31;5273208;28;20023;-75
2023/12/31 04:20:51;;;;;;;2.50;1.40;;;;;;;10.12;100.00;99731.00;5269780;28;20027;-75
2023/12/31 04:23:21;;;;;;;1.58;1.20;;;;;;;10.17;100.00;99729.59;5272239;28;20119;-75
2023/12/31 04:25:52;;;;;;;2.53;1.38;;;;;;;10.15;100.00;99726.28;5271749;28;20523;-75
2023/12/31 04:28:23;;;;;;;4.38;1.75;;;;;;;10.15;100.00;99720.94;5273866;28;20027;-75
2023/12/31 04:30:53;;;;;;;4.00;1.70;;;;;;;10.24;100.00;99707.25;5270265;28;20019;-75
2023/12/31 04:33:24;;;;;;;2.88;1.70;;;;;;;10.24;100.00;99706.41;5269806;28;20461;-75
2023/12/31 04:35:54;;;;;;;2.00;1.30;;;;;;;10.28;100.00;99707.69;5274170;28;20103;-75
2023/12/31 04:38:25;;;;;;;2.55;1.80;;;;;;;10.37;100.00;99699.31;5275107;28;20027;-75
2023/12/31 04:40:56;;;;;;;2.45;1.73;;;;;;;10.35;100.00;99687.13;5267057;28;20039;-75
2023/12/31 04:43:26;;;;;;;3.67;1.70;;;;;;;10.44;100.00;99656.50;5274833;28;20361;-75
2023/12/31 04:45:57;;;;;;;3.83;1.90;;;;;;;10.43;100.00;99672.75;5271424;28;20485;-75
2023/12/31 04:48:27;;;;;;;3.65;1.70;;;;;;;10.50;100.00;99682.53;5274428;28;20019;-75
2023/12/31 04:50:58;;;;;;;2.78;1.45;;;;;;;10.40;100.00;99671.28;5270407;28;20020;-75
2023/12/31 04:53:32;;;;;;;4.28;1.65;;;;;;;10.58;100.00;99662.75;5266501;28;20066;-75
2023/12/31 04:56:03;;;;;;;3.22;2.05;;;;;;;10.61;100.00;99665.88;5273549;28;20015;-75
2023/12/31 04:58:33;;;;;;;4.32;1.95;;;;;;;10.61;100.00;99649.78;5271030;28;20546;-75
2023/12/31 05:01:04;;;;;;;3.88;1.90;;;;;;;10.54;100.00;99645.41;5271697;28;20020;-75
2023/12/31 05:03:34;;;;;;;4.15;1.70;;;;;;;10.63;100.00;99637.00;5276012;28;20499;-75
2023/12/31 05:06:05;;;;;;;4.18;2.22;;;;;;;10.66;100.00;99634.97;5274405;28;20024;-75
2023/12/31 05:08:36;;;;;;;2.78;1.75;;;;;;;10.73;100.00;99633.97;5274822;28;20362;-75
2023/12/31 05:11:06;;;;;;;6.15;2.38;;;;;;;10.81;100.00;99628.47;5271445;28;20032;-75
2023/12/31 05:13:38;;;;;;;3.17;1.85;;;;;;;10.77;100.00;99619.16;5267538;28;20016;-75
2023/12/31 05:16:13;;;;;;;4.43;1.52;;;;;;;10.89;100.00;99619.41;5273467;28;20156;-75
2023/12/31 05:18:46;;;;;;;2.05;1.70;;;;;;;10.93;100.00;99635.97;5270572;28;20028;-75
2023/12/31 05:21:17;;;;;;;2.28;1.67;;;;;;;10.93;100.00;99631.41;5272634;28;20024;-75
2023/12/31 05:23:47;;;;;;;3.70;1.40;;;;;;;10.93;100.00;99614.50;5271455;28;20032;-75
2023/12/31 05:26:18;;;;;;;2.65;1.77;;;;;;;11.07;100.00;99616.22;5270399;28;20038;-75
2023/12/31 05:28:49;;;;;;;3.92;1.85;;;;;;;11.16;100.00;99620.41;5268080;28;20028;-75
2023/12/31 05:31:19;;;;;;;3.65;2.05;;;;;;;11.00;100.00;99610.00;5277068;28;20024;-75
2023/12/31 05:33:50;;;;;;;2.13;1.50;;;;;;;11.15;100.00;99606.16;5272726;28;20032;-75
2023/12/31 05:36:20;;;;;;;2.35;1.67;;;;;;;11.02;100.00;99602.56;5274752;28;20381;-75
2023/12/31 05:38:51;;;;;;;4.20;1.63;;;;;;;11.00;100.00;99589.34;5263518;28;20049;-75
2023/12/31 05:41:21;;;;;;;3.13;1.48;;;;;;;11.10;100.00;99589.81;5270801;27;20031;-75
2023/12/31 05:43:52;;;;;;;2.70;1.60;;;;;;;11.06;100.00;99577.81;5271887;28;20024;-75
2023/12/31 05:46:22;;;;;;;2.75;1.63;;;;;;;11.13;100.00;99586.72;5277786;28;20035;-75
2023/12/31 05:48:53;;;;;;;6.85;1.48;;;;;;;11.23;100.00;99566.72;5268589;28;20026;-75
2023/12/31 05:51:23;;;;;;;2.47;1.48;;;;;;;11.37;100.00;99576.47;5270438;28;20059;-75
2023/12/31 05:53:54;;;;;;;3.63;1.52;;;;;;;11.30;100.00;99573.78;5269185;28;20023;-75
2023/12/31 05:56:24;;;;;;;2.03;1.38;;;;;;;11.43;100.00;99572.16;5253932;28;20385;-75
2023/12/31 05:58:55;;;;;;;5.15;1.98;;;;;;;11.33;100.00;99561.78;5267574;28;20024;-75
2023/12/31 06:01:26;;;;;;;2.42;1.48;;;;;;;11.37;100.00;99555.81;5269441;28;20083;-75
2023/12/31 06:03:57;;;;;;;2.38;1.35;;;;;;;11.28;100.00;99545.47;5271915;28;20028;-75
2023/12/31 06:06:32;;;;;;;3.88;1.52;;;;;;;11.49;100.00;99545.31;5270700;28;20076;-75
2023/12/31 06:09:03;;;;;;;;;;;;;;;11.45;100.00;99532.50;5264814;28;20496;-75
2023/12/31 06:11:33;;;;;;;2.97;1.65;;;;;;;11.40;100.00;99514.31;5270566;28;19915;-76
2023/12/31 06:14:04;;;;;;;2.90;1.42;;;;;;;11.40;100.00;99519.69;5269627;28;20076;-75
2023/12/31 06:16:34;;;;;;;2.38;1.45;;;;;;;11.53;100.00;99519.69;5270312;28;20028;-75
2023/12/31 06:19:05;;;;;;;2.90;1.40;;;;;;;11.48;100.00;99513.28;5266893;28;20028;-75
2023/12/31 06:21:35;;;;;;;3.05;1.55;;;;;;;11.54;100.00;99518.66;5269471;28;20032;-75
2023/12/31 06:24:06;;;;;;;5.60;1.70;;;;;;;11.56;100.00;99513.94;5271681;28;20027;-75
2023/12/31 06:26:36;;;;;;;2.22;1.48;;;;;;;11.56;100.00;99505.88;5265167;28;20397;-75
2023/12/31 06:29:07;;;;;;;3.25;1.60;;;;;;;11.71;100.00;99515.59;5270739;28;20051;-76
2023/12/31 06:31:37;;;;;;;3.33;1.70;;;;;;;11.72;100.00;99511.88;5267116;28;20073;-75
2023/12/31 06:34:08;;;;;;;2.22;1.30;;;;;;;11.81;100.00;99484.59;5271651;28;20073;-75
2023/12/31 06:36:38;;;;;;;2.88;1.40;;;;;;;11.69;100.00;99486.22;5272171;28;20020;-76
2023/12/31 06:39:10;;;;;;;2.15;1.35;;;;;;;11.81;100.00;99484.59;5270983;28;20036;-76
2023/12/31 06:41:40;;;;;;;5.32;1.88;;;;;;;11.87;100.00;99477.59;5270635;28;20040;-76
2023/12/31 06:44:11;;;;;;;1.95;1.30;;;;;;;11.84;100.00;99489.56;5269680;28;20030;-76
2023/12/31 06:46:42;;;;;;;5.88;2.10;;;;;;;11.88;100.00;99477.38;5267064;28;20730;-75
2023/12/31 06:49:12;;;;;;;3.80;2.13;;;;;;;11.94;100.00;99473.03;5269645;28;20035;-75
2023/12/31 06:51:43;;;;;;;2.53;1.50;;;;;;;12.07;100.00;99470.31;5268438;28;20024;-76
2023/12/31 06:54:13;;;;;;;1.88;1.40;;;;;;;12.00;100.00;99456.09;5273632;28;20020;-76
2023/12/31 06:56:44;;;;;;;3.40;1.58;;;;;;;11.90;100.00;99444.94;5268421;28;20024;-76
2023/12/31 06:59:14;;;;;;;2.15;1.73;;;;;;;12.04;100.00;99446.53;5270916;28;20023;-75
2023/12/31 07:01:45;;;;;;;2.33;1.25;;;;;;;11.87;100.00;99440.78;5270732;28;20024;-75
2023/12/31 07:04:16;;;;;;;2.83;1.50;;;;;;;12.03;100.00;99436.00;5276342;27;20031;-75
2023/12/31 07:06:47;;;;;;;2.90;1.73;;;;;;;11.97;100.00;99428.78;5272904;28;20051;-75
2023/12/31 07:09:18;;;;;;;3.05;1.50;;;;;;;11.98;100.00;99442.00;5272895;28;20059;-74
2023/12/31 07:11:48;;;;;;;1.67;1.33;;;;;;;11.94;100.00;99451.53;5271210;28;20712;-75
2023/12/31 07:14:21;;;;;;;4.07;1.52;;;;;;;11.82;100.00;99442.47;5273246;28;20027;-75
2023/12/31 07:16:51;;;;;;;2.88;1.60;;;;;;;11.77;100.00;99434.16;5272467;28;20090;-75
2023/12/31 07:19:22;;;;;;;4.30;1.75;;;;;;;11.66;100.00;99432.94;5276412;28;20485;-75
2023/12/31 07:21:52;;;;;;;2.15;1.38;;;;;;;11.81;100.00;99414.72;5269616;28;20080;-75
2023/12/31 07:24:23;;;;;;;3.33;1.10;;;;;;;11.76;100.00;99411.84;5274818;28;20042;-75
2023/12/31 07:26:53;;;;;;;1.98;1.30;;;;;;;11.81;100.00;99412.03;5269908;28;20032;-75
2023/12/31 07:29:24;;;;;;;2.45;1.23;;;;;;;11.83;100.00;99425.28;5274702;28;20027;-75
2023/12/31 07:31:54;;;;;;;2.10;1.17;;;;;;;11.90;100.00;99423.44;5267851;28;20028;-74
2023/12/31 07:34:25;;;;;;;1.70;1.10;;;;;;;11.77;100.00;99418.88;5275213;28;20027;-75
2023/12/31 07:36:56;;;;;;;2.88;1.33;;;;;;;11.80;100.00;99412.25;5269198;28;20363;-75
2023/12/31 07:39:26;;;;;;;1.77;1.10;;;;;;;11.80;100.00;99423.00;5270940;28;20020;-75
2023/12/31 07:41:57;;;;;;;1.83;1.38;;;;;;;11.74;100.00;99431.88;5270802;28;20031;-75
2023/12/31 07:44:27;;;;;;;1.80;1.10;;;;;;;11.84;100.00;99419.69;5274103;28;20034;-75
2023/12/31 07:46:58;;;;;;;1.77;1.23;;;;;;;11.58;100.00;99415.16;5263760;28;20024;-75
2023/12/31 07:49:30;;;;;;;4.13;1.35;;;;;;;11.54;100.00;99421.16;5270201;28;20031;-75
2023/12/31 07:52:00;;;;;;;3.47;0.98;;;;;;;11.47;100.00;99423.84;5266173;28;20028;-76
2023/12/31 07:54:31;;;;;;;1.95;1.30;;;;;;;11.45;100.00;99436.66;5266011;27;20028;-75
2023/12/31 07:57:02;;;;;;;2.28;1.40;;;;;;;11.40;100.00;99426.53;5260381;28;20046;-75
2023/12/31 07:59:35;;;;;;;1.27;0.93;;;;;;;11.17;100.00;99449.44;5272752;28;20027;-75
2023/12/31 08:02:05;;;;;;;3.13;1.20;;;;;;;11.26;100.00;99445.53;5270058;28;20110;-75
2023/12/31 08:04:36;;;;;;;1.60;1.00;;;;;;;10.98;100.00;99425.03;5272353;28;20549;-75
2023/12/31 08:07:07;;;;;;;2.00;0.93;;;;;;;11.00;100.00;99441.75;5273848;28;20027;-75
2023/12/31 08:09:37;;;;;;;2.17;0.90;;;;;;;10.91;100.00;99442.16;5269043;28;20059;-75
2023/12/31 08:12:08;;;;;;;1.58;0.98;;;;;;;10.91;100.00;99452.88;5272958;28;20106;-75
2023/12/31 08:14:39;;;;;;;1.67;0.90;;;;;;;10.91;100.00;99451.03;5271682;28;20023;-75
2023/12/31 08:17:09;;;;;;;1.10;0.80;;;;;;;10.89;100.00;99456.59;5271409;28;20022;-75
2023/12/31 08:19:40;;;;;;;3.42;0.80;;;;;;;10.91;100.00;99456.38;5271843;28;20027;-75
2023/12/31 08:22:11;;;;;;;0.98;0.63;;;;;;;10.78;100.00;99450.97;5269198;28;20020;-75
2023/12/31 08:24:41;;;;;;;2.35;0.75;;;;;;;10.84;100.00;99458.22;5270307;28;20027;-75
2023/12/31 08:27:12;;;;;;;1.70;0.80;;;;;;;10.77;100.00;99462.75;5272102;28;20066;-75
2023/12/31 08:29:42;;;;;;;1.38;0.90;;;;;;;10.88;100.00;99470.19;5270106;28;20050;-75
2023/12/31 08:32:13;;;;;;;2.03;0.75;;;;;;;10.72;100.00;99471.38;5273312;28;20060;-75
2023/12/31 08:34:45;;;;;;;0.60;0.60;;;;;;;10.82;100.00;99457.59;5269088;27;20043;-75
2023/12/31 08:37:15;;;;;;;3.88;0.63;;;;;;;10.64;100.00;99471.53;5274738;28;20086;-75
2023/12/31 08:39:46;;;;;;;1.33;0.70;;;;;;;10.59;100.00;99461.44;5267429;28;20545;-75
2023/12/31 08:42:16;;;;;;;3.55;0.82;;;;;;;10.62;100.00;99474.44;5274706;28;20020;-76
2023/12/31 08:44:47;;;;;;;5.03;1.00;;;;;;;10.62;100.00;99474.44;5271050;28;20048;-75
2023/12/31 08:47:17;;;;;;;2.88;0.70;;;;;;;10.58;100.00;99473.19;5269355;28;20032;-75
2023/12/31 08:49:48;;;;;;;3.05;1.00;;;;;;;10.72;100.00;99476.75;5270645;28;20031;-75
2023/12/31 08:52:20;;;;;;;1.88;0.82;;;;;;;10.82;100.00;99479.88;5271578;28;20119;-75
2023/12/31 08:54:51;;;;;;;2.13;1.05;;;;;;;10.79;100.00;99485.66;5265422;28;20031;-75
2023/12/31 08:57:21;;;;;;;2.03;1.00;;;;;;;10.60;100.00;99481.88;5267798;28;20024;-75
2023/12/31 08:59:52;;;;;;;3.20;0.75;;;;;;;10.70;100.00;99483.34;5269688;28;20085;-75
2023/12/31 09:02:23;;;;;;;2.30;0.95;;;;;;;10.70;100.00;99480.69;5273351;28;20047;-75
2023/12/31 09:04:54;;;;;;;1.95;0.60;;;;;;;10.78;100.00;99493.91;5270257;28;20574;-75
2023/12/31 09:07:25;;;;;;;2.97;0.90;;;;;;;10.69;100.00;99501.28;5269357;28;20031;-75
2023/12/31 09:09:56;;;;;;;4.00;0.70;;;;;;;10.59;100.00;99492.78;5268044;28;20027;-75
2023/12/31 09:12:26;;;;;;;3.90;0.90;;;;;;;10.77;100.00;99501.13;5273663;28;20489;-75
2023/12/31 09:14:57;;;;;;;3.25;1.10;;;;;;;10.79;100.00;99501.75;5267779;28;20115;-75
2023/12/31 09:17:28;;;;;;;2.97;0.80;;;;;;;10.78;100.00;99510.00;5269642;28;20111;-76
2023/12/31 09:19:59;;;;;;;2.63;0.60;;;;;;;10.73;100.00;99505.22;5266221;28;20492;-75
2023/12/31 09:22:31;;;;;;;2.05;0.80;;;;;;;10.85;100.00;99518.91;5271536;28;20024;-75
2023/12/31 09:25:02;;;;;;;3.17;0.90;;;;;;;10.77;100.00;99514.53;5265799;28;20024;-75
2023/12/31 09:27:32;;;;;;;1.27;1.08;;;;;;;10.89;100.00;99518.31;5270300;28;20354;-75
2023/12/31 09:30:03;;;;;;;1.70;0.70;;;;;;;10.87;100.00;99516.84;5271289;28;20069;-75
2023/12/31 09:32:35;;;;;;;2.53;1.00;;;;;;;10.92;100.00;99530.47;5268666;28;20038;-75
2023/12/31 09:35:05;;;;;;;5.40;0.80;;;;;;;10.89;100.00;99538.91;5269835;28;20016;-75
2023/12/31 09:37:36;;;;;;;4.30;0.60;;;;;;;10.79;100.00;99533.09;5270266;28;20026;-75
2023/12/31 09:40:08;;;;;;;2.50;0.68;;;;;;;10.85;100.00;99540.38;5267205;28;20052;-75
2023/12/31 09:42:47;;;;;;;5.10;1.00;;;;;;;10.91;100.00;99550.31;5271175;28;20035;-76
2023/12/31 09:45:22;;;;;;;3.53;0.75;;;;;;;10.88;100.00;99550.69;5272365;28;20031;-76
2023/12/31 09:47:54;;;;;;;2.53;1.00;;;;;;;10.71;100.00;99560.13;5266450;28;20036;-75
2023/12/31 09:50:26;;;;;;;4.10;0.68;;;;;;;10.60;100.00;99562.31;5272261;28;20016;-75
2023/12/31 09:52:57;;;;;;;3.35;1.02;;;;;;;10.59;100.00;99578.59;5265731;28;20065;-76
2023/12/31 09:55:29;;;;;;;6.60;0.70;;;;;;;10.55;100.00;99575.50;5273766;28;20069;-77
2023/12/31 09:58:00;;;;;;;4.35;0.88;;;;;;;10.37;100.00;99567.94;5268039;28;20028;-76
2023/12/31 10:00:30;;;;;;;2.97;0.60;;;;;;;10.35;100.00;99561.97;5271258;28;20025;-76
2023/12/31 10:03:03;;;;;;;2.95;0.77;;;;;;;10.30;100.00;99572.44;5272509;28;20077;-76
2023/12/31 10:05:38;;;;;;;3.03;0.90;;;;;;;10.22;100.00;99569.03;5272358;28;20384;-76
2023/12/31 10:08:09;;;;;;;5.00;0.90;;;;;;;10.17;100.00;99577.66;5269675;28;20024;-76
2023/12/31 10:10:40;;;;;;;2.80;0.52;;;;;;;10.35;100.00;99570.00;5267668;28;20022;-75
2023/12/31 10:13:15;;;;;;;2.85;0.70;;;;;;;10.43;100.00;99576.22;5270335;28;20024;-76
2023/12/31 10:15:46;;;;;;;;;;;;;;;10.47;100.00;99591.72;5251263;28;20020;-76
2023/12/31 10:18:16;;;;;;;2.95;0.90;;;;;;;10.38;100.00;99579.50;5268862;28;19957;-76
2023/12/31 10:20:47;;;;;;;2.47;0.70;;;;;;;10.66;100.00;99592.88;5269480;28;20606;-76
2023/12/31 10:23:18;;;;;;;3.63;0.60;;;;;;;10.69;100.00;99594.34;5252062;28;20541;-77
2023/12/31 10:25:48;;;;;;;3.97;0.80;;;;;;;10.59;100.00;99587.50;5268414;28;20485;-76
2023/12/31 10:28:19;;;;;;;8.32;2.38;;;;;;;10.50;100.00;99594.03;5270122;28;20110;-76
2023/12/31 10:30:49;;;;;;;3.60;0.63;;;;;;;10.73;100.00;99596.44;5267451;27;20020;-76
2023/12/31 10:33:27;;;;;;;1.63;0.68;;;;;;;10.60;100.00;99615.97;5269315;28;20165;-76
2023/12/31 10:36:04;;;;;;;1.77;0.60;;;;;;;10.67;100.00;99607.13;5248442;28;20027;-76
2023/12/31 10:38:45;;;;;;;4.90;0.93;;;;;;;10.58;100.00;99607.25;5266685;28;20031;-76
2023/12/31 10:41:20;;;;;;;1.73;0.50;;;;;;;10.57;100.00;99604.78;5267753;28;20091;-76
2023/12/31 10:43:52;;;;;;;3.72;0.68;;;;;;;10.69;100.00;99599.69;5261659;28;20049;-76
2023/12/31 10:46:25;;;;;;;2.13;0.70;;;;;;;10.68;100.00;99603.41;5267928;28;20024;-75
2023/12/31 10:49:01;;;;;;;2.28;0.80;;;;;;;10.58;100.00;99604.59;5266864;28;20115;-75
2023/12/31 10:51:35;;;;;;;4.07;0.82;;;;;;;10.68;100.00;99600.72;5264490;28;20023;-76
2023/12/31 10:54:08;;;;;;;2.45;0.77;;;;;;;10.66;100.00;99616.19;5265385;28;20035;-75
2023/12/31 10:56:40;;;;;;;6.80;0.90;;;;;;;10.54;100.00;99616.75;5267380;28;20024;-75
2023/12/31 10:59:12;;;;;;;2.65;0.70;;;;;;;10.75;100.00;99621.22;5269147;28;20035;-75
2023/12/31 11:01:43;;;;;;;2.85;0.80;;;;;;;10.55;100.00;99622.94;5267252;28;20154;-75
2023/12/31 11:04:15;;;;;;;3.80;0.63;;;;;;;10.56;100.00;99628.09;5269400;28;20106;-76
2023/12/31 11:06:47;;;;;;;3.35;0.88;;;;;;;10.47;100.00;99631.94;5265011;28;20031;-76
2023/12/31 11:09:19;;;;;;;2.33;0.57;;;;;;;10.30;100.00;99639.47;5268694;28;20020;-76
2023/12/31 11:11:50;;;;;;;6.78;0.90;;;;;;;10.35;100.00;99646.91;5267622;28;20076;-76
2023/12/31 11:14:28;;;;;;;4.30;0.80;;;;;;;10.38;100.00;99655.38;5265055;28;20020;-77
2023/12/31 11:17:22;;;;;;;7.97;1.42;;;;;;;10.41;100.00;99664.91;5244197;28;20624;-76
2023/12/31 11:20:06;;;;;;;3.25;1.55;;;;;;;10.31;100.00;99659.06;5263736;28;20115;-75
2023/12/31 11:22:55;;;;;;;6.63;1.58;;;;;;;10.28;100.00;99646.03;5265864;28;20092;-76
2023/12/31 11:25:26;;;;;;;15.25;6.38;;;;;;;10.24;100.00;99655.47;5268795;28;20366;-75
2023/12/31 11:27:57;;;;;;;6.60;1.83;;;;;;;10.25;100.00;99665.19;5265675;28;20032;-76
2023/12/31 11:30:52;;;;;;;13.90;5.65;;;;;;;10.26;100.00;99653.44;5251878;28;20027;-76
2023/12/31 11:33:29;;;;;;;5.25;2.03;;;;;;;10.22;100.00;99647.59;5269647;28;20034;-76
2023/12/31 11:36:05;;;;;;;4.93;1.17;;;;;;;10.23;100.00;99643.06;5254810;28;20120;-75
2023/12/31 11:38:53;;;;;;;5.32;1.48;;;;;;;10.35;100.00;99646.91;5267950;27;20030;-76
2023/12/31 11:41:26;;;;;;;8.27;1.10;;;;;;;10.12;100.00;99631.84;5269536;28;20023;-76
2023/12/31 11:43:57;;;;;;;15.05;2.20;;;;;;;10.20;100.00;99630.06;5269916;28;20028;-76